Pays
Station

 

Conditions  météo  pour  Pittsburgh, Pittsburgh International Airport  -  Etats-Unis    Etats-Unis

  
-12 °C
    
 
 

METAR pour Pittsburgh, Pittsburgh International Airport :

KPIT 212151Z 29010KT 10SM SCT033 M12/M18 A3048 RMK AO2 SLP358 T11171178

 

Voici le bulletin pour Pittsburgh, Pittsburgh International Airport - Etats-Unis.
 
Le bulletin a été fait il y a 17 minutes, à 21:51 UTC .
Le vent soufflait à la vitesse de 5.1 mètres par seconde de Ouest/Nord-ouest (290°).
 
La température était de -12 °C, avec un point de rosée à -18 °C.
La température ressentie était de -19 °C.
 
La pression atmosphérique était de 1032 hPa.
L'humidité relative était de 60.8%.
 
Il y avait 3 à 4/8ème de nébulosité à une hauteur de 1006 mètres.
 
La visibilité globale était de 16.1 kilomètres.
 

 
 
 

Pays :   A   B   C   D   E   F   G   H   I   J   K   L   M   N   O   P   Q   R   S   T   U   V   W   Y   Z

 

Partenaires :  Info Météo avec Met'info
Météo Marine avec MeteoMarine.net
Infos Site  |  Infos Légales  |  Crédits  |  Confidentialité
Contactez-nous  |  Ajouter aux favoris
© 2013-2019 METAR - Tous droits réservés